This is the latest recevied weather packets stored in our database for station/object K0NV. If no packets are shown the sender has not sent any weather packets the latest 10 day(s).
| Time | Temp. | Humidity | Pressure | Rain* | Wind** | Luminosity | Snow |
|---|---|---|---|---|---|---|---|
| 1777745994 | 17.78° C | 47% | 1021.5 hPa | 0 mm | - | 193 W/m² | - |
| 1777745692 | 18.33° C | 40% | 1021.5 hPa | 0 mm | - | 823 W/m² | - |
| 1777745391 | 17.78° C | 42% | 1021.6 hPa | 0 mm | - | 797 W/m² | - |
| 1777745087 | 17.78° C | 43% | 1021.5 hPa | 0 mm | - | 780 W/m² | - |
| 1777744783 | 17.78° C | 42% | 1021.8 hPa | 0 mm | - | 767 W/m² | - |
| 1777744478 | 17.22° C | 42% | 1021.5 hPa | 0 mm | - | 792 W/m² | - |
| 1777744174 | 17.78° C | 46% | 1021.7 hPa | 0 mm | - | 824 W/m² | - |
| 1777743866 | 17.78° C | 44% | 1021.7 hPa | 0 mm | - | 800 W/m² | - |
| 1777743562 | 17.78° C | 46% | 1021.8 hPa | 0 mm | - | 775 W/m² | - |
| 1777743259 | 17.22° C | 47% | 1021.8 hPa | 0 mm | - | 801 W/m² | - |
| 1777742958 | 17.22° C | 45% | 1022.1 hPa | 0 mm | - | 813 W/m² | - |
| 1777742655 | 17.22° C | 46% | 1021.8 hPa | 0 mm | - | 788 W/m² | - |
| 1777742350 | 17.22° C | 49% | 1021.8 hPa | 0 mm | - | 791 W/m² | - |
| 1777742047 | 17.22° C | 48% | 1022 hPa | 0 mm | - | 787 W/m² | - |
| 1777741745 | 17.22° C | 50% | 1021.8 hPa | 0 mm | - | 789 W/m² | - |
| 1777741441 | 16.67° C | 53% | 1022 hPa | 0 mm | - | 788 W/m² | - |
| 1777741136 | 16.67° C | 52% | 1022.1 hPa | 0 mm | - | 823 W/m² | - |
| 1777740834 | 16.67° C | 52% | 1022.2 hPa | 0 mm | - | 774 W/m² | - |
| 1777740530 | 16.67° C | 50% | 1022 hPa | 0 mm | - | 807 W/m² | - |
| 1777740222 | 16.67° C | 51% | 1022.1 hPa | 0 mm | - | 821 W/m² | - |
| 1777739918 | 16.67° C | 53% | 1021.7 hPa | 0 mm | - | 622 W/m² | - |
| 1777739614 | 16.67° C | 52% | 1022.2 hPa | 0 mm | - | 819 W/m² | - |
| 1777739312 | 17.22° C | 51% | 1022.1 hPa | 0 mm | - | 816 W/m² | - |
| 1777739008 | 16.67° C | 50% | 1022 hPa | 0 mm | - | 815 W/m² | - |
| 1777738705 | 16.67° C | 53% | 1021.8 hPa | 0 mm | - | 824 W/m² | - |
* Rain latest hour (hover to see other rain measurements)
** Current wind speed in m/s (hover to see current wind gust speed)